createdAt,value
2022-07-29T00:01:19.024Z,27.06
2022-07-29T00:03:47.247Z,27.07
2022-07-29T00:06:15.327Z,27.10
2022-07-29T00:08:42.531Z,27.11
2022-07-29T00:11:10.013Z,27.17
2022-07-29T00:13:37.810Z,27.13
2022-07-29T00:16:05.762Z,27.11
2022-07-29T00:18:33.326Z,27.13
2022-07-29T00:21:00.782Z,27.11
2022-07-29T00:23:27.954Z,27.11
2022-07-29T00:25:55.143Z,27.11
2022-07-29T00:28:22.172Z,27.10
2022-07-29T00:30:49.363Z,27.07
2022-07-29T00:33:16.462Z,27.07
2022-07-29T00:35:46.414Z,27.04
2022-07-29T00:38:18.189Z,27.04
2022-07-29T00:40:46.247Z,27.05
2022-07-29T00:43:15.510Z,27.05
2022-07-29T00:45:43.665Z,27.05
2022-07-29T00:48:11.707Z,27.05
2022-07-29T00:50:39.927Z,27.03
2022-07-29T00:53:08.687Z,26.98
2022-07-29T00:55:36.694Z,26.96
2022-07-29T00:58:03.958Z,26.97
2022-07-29T01:00:32.041Z,26.96
2022-07-29T01:02:59.427Z,26.92
2022-07-29T01:05:48.490Z,26.88
2022-07-29T01:08:17.677Z,26.85
2022-07-29T01:10:45.683Z,26.84
2022-07-29T01:13:14.611Z,26.80
2022-07-29T01:15:49.701Z,26.75
2022-07-29T01:18:29.691Z,26.72
2022-07-29T01:21:03.764Z,26.64
2022-07-29T01:23:50.167Z,26.61
2022-07-29T01:26:33.053Z,26.56
2022-07-29T01:29:07.627Z,26.52
2022-07-29T01:31:40.348Z,26.48
2022-07-29T01:34:32.347Z,26.46
2022-07-29T01:37:21.347Z,26.40
2022-07-29T01:39:51.386Z,26.33
2022-07-29T01:42:39.955Z,26.28
2022-07-29T01:45:21.321Z,26.27
2022-07-29T01:48:06.001Z,26.25
2022-07-29T01:50:39.638Z,26.22
2022-07-29T01:53:10.576Z,26.19
2022-07-29T01:55:45.623Z,26.17
2022-07-29T01:58:15.519Z,26.13
2022-07-29T02:00:45.813Z,26.08
2022-07-29T02:03:14.317Z,26.08
2022-07-29T02:05:43.923Z,26.05
2022-07-29T02:08:12.587Z,26.03
2022-07-29T02:10:42.003Z,26.00
2022-07-29T02:13:12.656Z,25.98
2022-07-29T02:15:42.949Z,25.93
2022-07-29T02:18:15.650Z,25.93
2022-07-29T02:20:45.701Z,25.92
2022-07-29T02:23:15.356Z,25.90
2022-07-29T02:25:44.123Z,25.88
2022-07-29T02:28:14.814Z,25.85
2022-07-29T02:30:44.826Z,25.82
2022-07-29T02:33:16.917Z,25.80
2022-07-29T02:35:48.458Z,25.81
2022-07-29T02:38:38.087Z,25.83
2022-07-29T02:41:12.518Z,25.82
2022-07-29T02:43:41.813Z,25.80
2022-07-29T02:46:28.472Z,25.80
2022-07-29T02:49:20.937Z,25.81
2022-07-29T02:51:56.354Z,25.84
2022-07-29T02:54:45.710Z,25.83
2022-07-29T02:57:30.374Z,25.80
2022-07-29T03:00:01.802Z,25.77
2022-07-29T03:02:31.984Z,25.72
2022-07-29T03:05:01.002Z,25.69
2022-07-29T03:07:29.135Z,25.67
2022-07-29T03:09:57.208Z,25.66
2022-07-29T03:12:25.439Z,25.67
2022-07-29T03:14:53.554Z,25.71
2022-07-29T03:17:22.346Z,25.75
2022-07-29T03:19:49.927Z,25.73
2022-07-29T03:22:17.351Z,25.73
2022-07-29T03:24:46.366Z,25.72
2022-07-29T03:27:14.720Z,25.73
2022-07-29T03:29:41.800Z,25.75
2022-07-29T03:32:17.170Z,25.78
2022-07-29T03:34:51.183Z,25.80
2022-07-29T03:37:18.359Z,25.78
2022-07-29T03:39:48.661Z,25.74
2022-07-29T03:42:17.624Z,25.69
2022-07-29T03:44:48.873Z,25.68
2022-07-29T03:47:20.288Z,25.70
2022-07-29T03:49:51.739Z,25.71
2022-07-29T03:52:19.443Z,25.69
2022-07-29T03:54:46.749Z,25.66
2022-07-29T03:57:16.493Z,25.65
2022-07-29T03:59:44.758Z,25.63
2022-07-29T04:02:14.912Z,25.61
2022-07-29T04:04:44.889Z,25.60
2022-07-29T04:07:16.411Z,25.55
2022-07-29T04:09:43.670Z,25.53
2022-07-29T04:12:11.148Z,25.56
2022-07-29T04:14:38.309Z,25.58
2022-07-29T04:17:06.391Z,25.62
2022-07-29T04:19:33.959Z,25.67
2022-07-29T04:22:01.665Z,25.69
2022-07-29T04:24:29.456Z,25.72
2022-07-29T04:26:56.757Z,25.75
2022-07-29T04:29:23.843Z,25.78
2022-07-29T04:31:51.071Z,25.84
2022-07-29T04:34:18.947Z,25.91
2022-07-29T04:36:46.691Z,25.97
2022-07-29T04:39:17.030Z,26.03
2022-07-29T04:41:46.454Z,26.12
2022-07-29T04:44:13.719Z,26.19
2022-07-29T04:46:42.487Z,26.27
2022-07-29T04:49:09.986Z,26.35
2022-07-29T04:51:37.207Z,26.44
2022-07-29T04:54:04.507Z,26.54
2022-07-29T04:56:31.619Z,26.63
2022-07-29T04:58:58.746Z,26.74
2022-07-29T05:01:25.916Z,26.83
2022-07-29T05:03:57.003Z,26.99
2022-07-29T05:06:27.185Z,27.29
2022-07-29T05:08:54.384Z,27.41
2022-07-29T05:11:24.980Z,27.50
2022-07-29T05:13:54.499Z,27.62
2022-07-29T05:16:22.510Z,27.80
2022-07-29T05:18:49.916Z,28.13
2022-07-29T05:21:16.995Z,28.36
2022-07-29T05:23:44.231Z,28.40
2022-07-29T05:26:11.592Z,28.40
2022-07-29T05:28:39.051Z,28.31
2022-07-29T05:31:06.239Z,28.33
2022-07-29T05:33:34.646Z,28.63
2022-07-29T05:36:08.476Z,29.13
2022-07-29T05:38:37.299Z,30.08
2022-07-29T05:41:05.464Z,31.63
2022-07-29T05:43:33.012Z,33.08
2022-07-29T05:46:00.403Z,34.59
2022-07-29T05:48:28.377Z,35.64
2022-07-29T05:50:55.946Z,36.72
2022-07-29T05:53:23.708Z,37.21
2022-07-29T05:55:51.996Z,37.22
2022-07-29T05:58:22.227Z,37.81
2022-07-29T06:00:49.543Z,38.10
2022-07-29T06:03:17.297Z,38.21
2022-07-29T06:05:44.589Z,38.21
2022-07-29T06:08:11.832Z,37.91
2022-07-29T06:10:39.515Z,37.62
2022-07-29T06:13:06.745Z,37.50
2022-07-29T06:15:34.544Z,36.96
2022-07-29T06:18:02.093Z,37.32
2022-07-29T06:20:33.573Z,37.00
2022-07-29T06:23:01.279Z,36.56
2022-07-29T06:25:33.560Z,36.82
2022-07-29T06:28:00.834Z,36.90
2022-07-29T06:30:30.071Z,37.14
2022-07-29T06:32:57.541Z,37.00
2022-07-29T06:35:38.330Z,35.87
2022-07-29T06:38:29.940Z,36.00
2022-07-29T06:41:07.224Z,35.79
2022-07-29T06:43:50.782Z,35.99
2022-07-29T06:46:21.284Z,36.02
2022-07-29T06:48:49.180Z,35.69
2022-07-29T06:51:22.927Z,35.46
2022-07-29T06:53:59.312Z,35.18
2022-07-29T06:56:39.434Z,35.20
2022-07-29T06:59:11.728Z,35.37
2022-07-29T07:01:41.289Z,34.90
2022-07-29T07:04:12.146Z,34.55
2022-07-29T07:06:39.472Z,34.66
2022-07-29T07:09:06.831Z,34.15
2022-07-29T07:11:34.607Z,34.22
2022-07-29T07:14:04.261Z,34.91
2022-07-29T07:16:32.945Z,35.50
2022-07-29T07:19:00.588Z,35.78
2022-07-29T07:21:30.201Z,36.01
2022-07-29T07:23:57.972Z,36.28
2022-07-29T07:26:25.254Z,36.70
2022-07-29T07:28:52.395Z,37.01
2022-07-29T07:31:19.617Z,36.82
2022-07-29T07:33:46.937Z,36.71
2022-07-29T07:36:14.073Z,36.46
2022-07-29T07:38:41.330Z,36.49
2022-07-29T07:41:08.610Z,36.45
2022-07-29T07:43:35.986Z,36.66
2022-07-29T07:46:04.276Z,36.51
2022-07-29T07:48:31.690Z,35.93
2022-07-29T07:50:58.870Z,35.39
2022-07-29T07:53:26.132Z,34.87
2022-07-29T07:56:09.974Z,34.55
2022-07-29T07:58:38.622Z,34.47
2022-07-29T08:01:05.912Z,34.30
2022-07-29T08:03:34.326Z,33.83
2022-07-29T08:06:01.548Z,33.92
2022-07-29T08:08:28.799Z,33.99
2022-07-29T08:11:02.210Z,34.35
2022-07-29T08:13:33.337Z,34.04
2022-07-29T08:16:02.805Z,34.09
2022-07-29T08:18:31.974Z,34.09
2022-07-29T08:20:59.866Z,33.37
2022-07-29T08:23:52.770Z,33.72
2022-07-29T08:26:25.198Z,33.96
2022-07-29T08:28:52.391Z,33.81
2022-07-29T08:31:19.661Z,33.61
2022-07-29T08:33:46.825Z,33.56
2022-07-29T08:36:14.414Z,33.47
2022-07-29T08:38:41.620Z,33.63
2022-07-29T08:41:08.885Z,33.77
2022-07-29T08:43:38.676Z,33.71
2022-07-29T08:46:05.955Z,33.82
2022-07-29T08:48:34.599Z,33.34
2022-07-29T08:51:02.904Z,33.23
2022-07-29T08:53:32.769Z,33.28
2022-07-29T08:56:01.680Z,33.04
2022-07-29T08:58:36.585Z,33.17
2022-07-29T09:01:05.084Z,32.98
2022-07-29T09:03:38.159Z,32.83
2022-07-29T09:06:06.034Z,32.90
2022-07-29T09:08:34.277Z,32.73
2022-07-29T09:11:05.740Z,32.66
2022-07-29T09:13:33.083Z,32.38
2022-07-29T09:16:02.502Z,32.07
2022-07-29T09:18:43.129Z,31.89
2022-07-29T09:21:34.052Z,31.66
2022-07-29T09:24:10.293Z,31.16
2022-07-29T09:26:40.685Z,31.06
2022-07-29T09:29:12.454Z,30.53
2022-07-29T09:31:42.878Z,30.25
2022-07-29T09:34:13.313Z,29.90
2022-07-29T09:36:41.553Z,29.99
2022-07-29T09:39:09.069Z,29.90
2022-07-29T09:41:57.075Z,29.97
2022-07-29T09:44:26.275Z,29.96
2022-07-29T09:47:11.873Z,30.03
2022-07-29T09:50:11.944Z,29.96
2022-07-29T09:52:53.517Z,30.21
2022-07-29T09:55:20.895Z,30.30
2022-07-29T09:57:48.457Z,30.55
2022-07-29T10:00:21.035Z,30.42
2022-07-29T10:02:48.341Z,30.02
2022-07-29T10:05:25.800Z,30.13
2022-07-29T10:07:57.387Z,30.12
2022-07-29T10:10:41.456Z,30.34
2022-07-29T10:13:15.374Z,30.25
2022-07-29T10:15:46.355Z,30.29
2022-07-29T10:18:15.513Z,30.42
2022-07-29T10:20:42.783Z,30.42
2022-07-29T10:23:10.921Z,30.45
2022-07-29T10:25:38.139Z,30.75
2022-07-29T10:28:06.944Z,30.94
2022-07-29T10:30:34.379Z,31.39
2022-07-29T10:33:15.941Z,31.60
2022-07-29T10:36:13.250Z,31.77
2022-07-29T10:39:06.410Z,31.88
2022-07-29T10:41:53.024Z,31.71
2022-07-29T10:44:22.881Z,31.63
2022-07-29T10:46:52.396Z,31.82
2022-07-29T10:49:25.056Z,31.73
2022-07-29T10:51:59.433Z,31.78
2022-07-29T10:54:46.256Z,31.83
2022-07-29T10:57:21.641Z,31.73
2022-07-29T11:00:16.743Z,31.87
2022-07-29T11:02:46.999Z,31.67
2022-07-29T11:05:20.310Z,31.37
2022-07-29T11:08:21.505Z,31.17
2022-07-29T11:11:15.884Z,31.24
2022-07-29T11:13:44.646Z,31.45
2022-07-29T11:16:15.981Z,31.62
2022-07-29T11:19:14.733Z,31.60
2022-07-29T11:24:34.985Z,31.53
2022-07-29T11:27:09.629Z,31.58
2022-07-29T11:29:50.975Z,31.74
2022-07-29T11:32:22.523Z,31.70
2022-07-29T11:35:17.574Z,31.72
2022-07-29T11:38:08.672Z,31.05
2022-07-29T11:40:38.864Z,30.67
2022-07-29T11:43:09.866Z,30.47
2022-07-29T11:45:48.464Z,30.25
2022-07-29T11:48:29.147Z,30.20
2022-07-29T11:51:00.027Z,30.36
2022-07-29T11:53:29.002Z,30.41
2022-07-29T11:56:00.693Z,30.55
2022-07-29T11:58:29.629Z,30.79
2022-07-29T12:00:58.087Z,30.71
2022-07-29T12:03:35.455Z,30.57
2022-07-29T12:06:18.358Z,30.67
2022-07-29T12:08:46.061Z,30.67
2022-07-29T12:11:23.242Z,30.46
2022-07-29T12:13:52.660Z,30.42
2022-07-29T12:16:25.037Z,30.34
2022-07-29T12:18:59.638Z,30.34
2022-07-29T12:21:28.917Z,30.45
2022-07-29T12:24:04.787Z,30.57
2022-07-29T12:26:35.986Z,30.70
2022-07-29T12:29:04.279Z,30.72
2022-07-29T12:31:42.976Z,30.73
2022-07-29T12:34:15.135Z,30.70
2022-07-29T12:36:44.021Z,30.70
2022-07-29T12:39:12.541Z,30.61
2022-07-29T12:41:40.242Z,30.77
2022-07-29T12:44:07.617Z,31.07
2022-07-29T12:46:34.859Z,30.95
2022-07-29T12:49:04.123Z,30.88
2022-07-29T12:51:40.140Z,30.88
2022-07-29T12:54:15.080Z,30.87
2022-07-29T12:56:45.286Z,30.70
2022-07-29T12:59:18.803Z,30.47
2022-07-29T13:01:49.577Z,30.34
2022-07-29T13:04:33.595Z,30.44
2022-07-29T13:07:04.904Z,30.31
2022-07-29T13:09:49.733Z,30.28
2022-07-29T13:12:17.088Z,30.34
2022-07-29T13:14:49.059Z,30.30
2022-07-29T13:17:32.707Z,29.96
2022-07-29T13:20:10.467Z,29.79
2022-07-29T13:22:37.740Z,29.76
2022-07-29T13:25:05.418Z,29.71
2022-07-29T13:27:37.571Z,29.71
2022-07-29T13:30:10.067Z,29.73
2022-07-29T13:32:40.587Z,29.81
2022-07-29T13:35:09.364Z,29.94
2022-07-29T13:37:39.565Z,30.05
2022-07-29T13:40:11.435Z,30.11
2022-07-29T13:42:39.343Z,30.13
2022-07-29T13:45:07.885Z,30.31
2022-07-29T13:47:35.261Z,30.33
2022-07-29T13:50:03.208Z,30.53
2022-07-29T13:52:32.848Z,30.58
2022-07-29T13:55:00.229Z,30.44
2022-07-29T13:57:27.625Z,30.15
2022-07-29T13:59:54.955Z,30.06
2022-07-29T14:02:25.947Z,30.05
2022-07-29T14:04:55.042Z,30.18
2022-07-29T14:07:23.267Z,30.22
2022-07-29T14:09:51.309Z,30.17
2022-07-29T14:12:18.909Z,30.04
2022-07-29T14:14:47.190Z,29.89
2022-07-29T14:17:15.336Z,29.81
2022-07-29T14:19:44.164Z,29.82
2022-07-29T14:22:11.393Z,29.87
2022-07-29T14:24:39.083Z,29.94
2022-07-29T14:27:07.760Z,29.94
2022-07-29T14:29:38.782Z,29.96
2022-07-29T14:32:18.444Z,29.87
2022-07-29T14:34:45.723Z,29.84
2022-07-29T14:37:15.806Z,29.79
2022-07-29T14:39:43.586Z,29.67
2022-07-29T14:42:12.745Z,29.68
2022-07-29T14:44:41.358Z,29.74
2022-07-29T14:47:08.839Z,29.76
2022-07-29T14:49:36.435Z,29.62
2022-07-29T14:52:05.398Z,29.55
2022-07-29T14:54:32.459Z,29.54
2022-07-29T14:56:59.709Z,29.61
2022-07-29T14:59:27.482Z,29.61
2022-07-29T15:01:55.011Z,29.62
2022-07-29T15:04:22.371Z,29.66
2022-07-29T15:06:51.776Z,29.70
2022-07-29T15:09:19.220Z,29.79
2022-07-29T15:11:46.306Z,29.73
2022-07-29T15:14:13.562Z,29.74
2022-07-29T15:16:48.022Z,29.86
2022-07-29T15:19:15.717Z,29.74
2022-07-29T15:21:48.018Z,29.66
2022-07-29T15:24:18.104Z,29.67
2022-07-29T15:26:45.379Z,29.63
2022-07-29T15:29:12.626Z,29.62
2022-07-29T15:31:39.725Z,29.62
2022-07-29T15:34:08.409Z,29.59
2022-07-29T15:36:51.529Z,29.63
2022-07-29T15:39:20.994Z,29.58
2022-07-29T15:41:48.400Z,29.47
2022-07-29T15:44:15.467Z,29.38
2022-07-29T15:47:01.911Z,29.37
2022-07-29T15:49:48.027Z,29.33
2022-07-29T15:52:25.007Z,29.31
2022-07-29T15:54:54.958Z,29.28
2022-07-29T15:57:23.099Z,29.26
2022-07-29T15:59:50.699Z,29.25
2022-07-29T16:02:17.997Z,29.26
2022-07-29T16:04:45.073Z,29.15
2022-07-29T16:07:12.622Z,29.13
2022-07-29T16:09:42.537Z,29.14
2022-07-29T16:12:14.873Z,29.09
2022-07-29T16:14:42.991Z,29.11
2022-07-29T16:17:10.322Z,29.13
2022-07-29T16:19:43.739Z,29.16
2022-07-29T16:22:11.310Z,29.17
2022-07-29T16:24:39.142Z,29.19
2022-07-29T16:27:08.010Z,29.25
2022-07-29T16:29:37.239Z,29.20
2022-07-29T16:32:06.015Z,29.12
2022-07-29T16:34:33.296Z,29.12
2022-07-29T16:37:00.936Z,29.04
2022-07-29T16:39:28.396Z,29.00
2022-07-29T16:41:59.888Z,29.00
2022-07-29T16:44:27.941Z,29.02
2022-07-29T16:46:58.920Z,28.99
2022-07-29T16:49:27.750Z,28.96
2022-07-29T16:51:55.047Z,28.95
2022-07-29T16:54:22.314Z,28.96
2022-07-29T16:56:49.872Z,28.96
2022-07-29T16:59:20.221Z,28.93
2022-07-29T17:01:47.993Z,28.93
2022-07-29T17:04:15.329Z,28.94
2022-07-29T17:06:42.761Z,28.97
2022-07-29T17:09:11.769Z,28.94
2022-07-29T17:11:51.588Z,28.92
2022-07-29T17:14:31.160Z,28.91
2022-07-29T17:17:01.798Z,28.89
2022-07-29T17:19:31.738Z,28.89
2022-07-29T17:22:08.480Z,28.88
2022-07-29T17:24:40.268Z,28.91
2022-07-29T17:27:09.614Z,28.90
2022-07-29T17:29:37.091Z,28.91
2022-07-29T17:32:07.567Z,28.84
2022-07-29T17:34:37.603Z,28.80
2022-07-29T17:37:09.807Z,28.78
2022-07-29T17:39:40.097Z,28.77
2022-07-29T17:42:09.697Z,28.78
2022-07-29T17:44:40.264Z,28.75
2022-07-29T17:47:16.289Z,28.69
2022-07-29T17:49:45.520Z,28.67
2022-07-29T17:52:12.749Z,28.56
2022-07-29T17:54:39.913Z,28.54
2022-07-29T17:57:07.099Z,28.47
2022-07-29T17:59:34.299Z,28.47
2022-07-29T18:02:01.458Z,28.43
2022-07-29T18:04:29.335Z,28.41
2022-07-29T18:06:56.834Z,28.38
2022-07-29T18:09:24.158Z,28.36
2022-07-29T18:11:51.929Z,28.31
2022-07-29T18:14:19.422Z,28.23
2022-07-29T18:16:46.755Z,28.21
2022-07-29T18:19:14.038Z,28.20
2022-07-29T18:21:51.317Z,28.18
2022-07-29T18:24:27.668Z,28.15
2022-07-29T18:26:54.982Z,28.12
2022-07-29T18:29:22.288Z,28.10
2022-07-29T18:31:49.686Z,28.07
2022-07-29T18:34:17.276Z,28.04
2022-07-29T18:36:45.901Z,28.02
2022-07-29T18:39:20.007Z,27.99
2022-07-29T18:41:51.271Z,27.99
2022-07-29T18:44:22.833Z,27.98
2022-07-29T18:46:51.770Z,27.97
2022-07-29T18:49:19.639Z,27.97
2022-07-29T18:51:47.194Z,27.93
2022-07-29T18:54:15.313Z,27.93
2022-07-29T18:56:42.452Z,27.90
2022-07-29T18:59:09.711Z,27.89
2022-07-29T19:01:38.131Z,27.86
2022-07-29T19:04:07.700Z,27.86
2022-07-29T19:06:35.351Z,27.83
2022-07-29T19:09:02.585Z,27.81
2022-07-29T19:11:29.732Z,27.78
2022-07-29T19:13:56.910Z,27.78
2022-07-29T19:16:24.115Z,27.76
2022-07-29T19:18:51.700Z,27.73
2022-07-29T19:21:19.573Z,27.73
2022-07-29T19:24:02.473Z,27.69
2022-07-29T19:26:36.660Z,27.68
2022-07-29T19:29:04.191Z,27.66
2022-07-29T19:31:31.351Z,27.64
2022-07-29T19:33:58.443Z,27.64
2022-07-29T19:36:26.800Z,27.62
2022-07-29T19:38:53.971Z,27.59
2022-07-29T19:41:24.662Z,27.54
2022-07-29T19:43:53.182Z,27.54
2022-07-29T19:46:24.429Z,27.53
2022-07-29T19:48:53.267Z,27.52
2022-07-29T19:51:21.160Z,27.47
2022-07-29T19:53:48.692Z,27.45
2022-07-29T19:56:16.784Z,27.41
2022-07-29T19:58:44.861Z,27.42
2022-07-29T20:01:12.709Z,27.46
2022-07-29T20:03:40.370Z,27.49
2022-07-29T20:06:08.678Z,27.49
2022-07-29T20:08:36.079Z,27.48
2022-07-29T20:11:03.615Z,27.44
2022-07-29T20:13:33.247Z,27.41
2022-07-29T20:16:00.892Z,27.40
2022-07-29T20:18:28.360Z,27.38
2022-07-29T20:20:57.316Z,27.40
2022-07-29T20:23:24.574Z,27.42
2022-07-29T20:25:51.638Z,27.44
2022-07-29T20:28:18.825Z,27.45
2022-07-29T20:30:45.909Z,27.55
2022-07-29T20:33:14.851Z,27.64
2022-07-29T20:35:41.916Z,27.63
2022-07-29T20:38:08.978Z,27.61
2022-07-29T20:40:38.814Z,27.59
2022-07-29T20:43:06.105Z,27.57
2022-07-29T20:45:34.506Z,27.55
2022-07-29T20:48:01.594Z,27.51
2022-07-29T20:50:29.028Z,27.50
2022-07-29T20:52:56.361Z,27.48
2022-07-29T20:55:23.694Z,27.48
2022-07-29T20:57:51.719Z,27.50
2022-07-29T21:00:21.654Z,27.50
2022-07-29T21:02:48.940Z,27.51
2022-07-29T21:05:16.118Z,27.51
2022-07-29T21:07:43.258Z,27.50
2022-07-29T21:10:10.646Z,27.55
2022-07-29T21:12:38.129Z,27.57
2022-07-29T21:15:08.746Z,27.61
2022-07-29T21:17:36.353Z,27.63
2022-07-29T21:20:06.871Z,27.59
2022-07-29T21:22:34.390Z,27.57
2022-07-29T21:25:01.783Z,27.54
2022-07-29T21:27:47.537Z,27.49
2022-07-29T21:30:14.648Z,27.44
2022-07-29T21:32:41.968Z,27.39
2022-07-29T21:35:19.122Z,27.36
2022-07-29T21:37:56.826Z,27.35
2022-07-29T21:40:23.909Z,27.34
2022-07-29T21:42:51.129Z,27.35
2022-07-29T21:45:18.161Z,27.35
2022-07-29T21:47:45.281Z,27.33
2022-07-29T21:50:12.434Z,27.36
2022-07-29T21:52:39.647Z,27.40
2022-07-29T21:55:07.726Z,27.40
2022-07-29T21:57:37.960Z,27.41
2022-07-29T22:00:08.478Z,27.44
2022-07-29T22:02:39.717Z,27.47
2022-07-29T22:05:07.004Z,27.54
2022-07-29T22:07:55.696Z,27.62
2022-07-29T22:10:21.476Z,27.66
2022-07-29T22:12:52.409Z,27.63
2022-07-29T22:15:20.036Z,27.61
2022-07-29T22:17:47.952Z,27.62
2022-07-29T22:20:15.373Z,27.63
2022-07-29T22:22:42.602Z,27.64
2022-07-29T22:25:10.785Z,27.66
2022-07-29T22:27:38.538Z,27.66
2022-07-29T22:30:07.059Z,27.61
2022-07-29T22:32:34.781Z,27.58
2022-07-29T22:35:01.912Z,27.55
2022-07-29T22:37:29.233Z,27.51
2022-07-29T22:39:56.545Z,27.47
2022-07-29T22:42:23.677Z,27.44
2022-07-29T22:44:50.870Z,27.44
2022-07-29T22:47:18.089Z,27.45
2022-07-29T22:50:06.062Z,27.43
2022-07-29T22:52:33.143Z,27.44
2022-07-29T22:55:00.300Z,27.40
2022-07-29T22:57:28.613Z,27.36
2022-07-29T22:59:55.838Z,27.40
2022-07-29T23:02:23.049Z,27.41
2022-07-29T23:04:50.120Z,27.38
2022-07-29T23:07:17.791Z,27.29
2022-07-29T23:09:44.940Z,27.25
2022-07-29T23:12:12.098Z,27.20
2022-07-29T23:14:39.313Z,27.13
2022-07-29T23:17:06.495Z,27.10
2022-07-29T23:19:33.720Z,27.05
2022-07-29T23:22:00.812Z,27.02
2022-07-29T23:24:28.085Z,27.00
2022-07-29T23:26:55.280Z,26.98
2022-07-29T23:29:22.519Z,26.99
2022-07-29T23:31:49.609Z,26.97
2022-07-29T23:34:16.779Z,26.96
2022-07-29T23:36:43.936Z,26.96
2022-07-29T23:39:12.439Z,27.01
2022-07-29T23:41:39.697Z,27.05
2022-07-29T23:44:07.025Z,27.10
2022-07-29T23:46:34.209Z,27.05
2022-07-29T23:49:01.513Z,26.98
2022-07-29T23:51:29.380Z,26.93
2022-07-29T23:53:56.801Z,26.85
2022-07-29T23:56:24.467Z,26.95
2022-07-29T23:58:52.396Z,26.99
